Time;durP1;ratioP1;P1;durP2;ratioP2;P2;SDS_P1;SDS_P2;PMS_P1;PMS_P2;Temp;Humidity;BMP_temperature;BMP_pressure;BME280_temperature;BME280_humidity;BME280_pressure;Samples;Min_cycle;Max_cycle;Signal;HPM_P1;HPM_P2
2021/10/07 00:00:39;;;;;;;4.05;2.25;;;;;;;9.34;74.38;97007.72;4987322;28;20054;-71
2021/10/07 00:03:05;;;;;;;3.78;2.15;;;;;;;9.28;74.25;97008.88;4985950;28;20050;-72
2021/10/07 00:05:32;;;;;;;3.38;2.20;;;;;;;9.25;74.93;97009.50;4987577;28;20050;-71
2021/10/07 00:07:58;;;;;;;3.53;2.10;;;;;;;9.16;74.73;97014.75;4986545;28;20424;-71
2021/10/07 00:10:25;;;;;;;3.70;2.08;;;;;;;9.07;75.37;97009.16;4985505;28;20046;-71
2021/10/07 00:12:54;;;;;;;4.20;2.28;;;;;;;8.99;75.59;97009.81;4986708;28;20050;-71
2021/10/07 00:15:21;;;;;;;3.17;2.05;;;;;;;9.03;75.81;97013.59;4986480;28;20409;-71
2021/10/07 00:17:48;;;;;;;5.10;2.00;;;;;;;9.06;75.61;97009.47;4986784;28;20053;-71
2021/10/07 00:20:16;;;;;;;3.72;2.13;;;;;;;9.07;75.82;97005.63;4985757;28;20535;-71
2021/10/07 00:22:44;;;;;;;2.90;2.15;;;;;;;9.04;75.80;97009.75;4987153;28;20500;-71
2021/10/07 00:25:12;;;;;;;3.22;2.00;;;;;;;9.08;76.41;97010.81;4985760;28;20483;-71
2021/10/07 00:27:39;;;;;;;3.47;1.88;;;;;;;9.13;75.44;97010.72;4987211;28;20061;-71
2021/10/07 00:30:12;;;;;;;3.25;1.98;;;;;;;9.18;75.88;97009.03;4985646;28;20057;-71
2021/10/07 00:32:43;;;;;;;6.28;3.05;;;;;;;9.16;75.70;97012.03;4987044;28;20428;-71
2021/10/07 00:35:37;;;;;;;3.97;2.10;;;;;;;9.13;76.28;97008.00;4985511;28;20061;-71
2021/10/07 00:40:49;;;;;;;5.80;2.72;;;;;;;9.13;76.53;97007.19;4984684;28;20061;-71
2021/10/07 00:43:15;;;;;;;7.28;2.70;;;;;;;9.14;76.98;97008.81;4985215;28;20062;-71
2021/10/07 00:45:49;;;;;;;4.68;2.70;;;;;;;9.21;76.12;97003.81;4986292;28;20054;-71
2021/10/07 00:48:16;;;;;;;4.03;2.00;;;;;;;9.21;75.99;97008.44;4984955;28;20058;-71
2021/10/07 00:50:42;;;;;;;4.47;2.72;;;;;;;9.22;75.74;97015.50;4985793;28;20050;-71
2021/10/07 00:53:09;;;;;;;3.92;2.05;;;;;;;9.25;75.88;97015.72;4985438;28;20060;-71
2021/10/07 00:55:36;;;;;;;4.40;2.25;;;;;;;9.26;76.05;97017.34;4985813;28;20062;-71
2021/10/07 00:58:03;;;;;;;4.53;1.98;;;;;;;9.27;75.84;97018.16;4986053;28;20060;-71
2021/10/07 01:00:30;;;;;;;3.05;1.95;;;;;;;9.28;75.80;97011.59;4985063;28;20054;-71
2021/10/07 01:02:58;;;;;;;5.68;2.50;;;;;;;9.33;76.50;97020.50;4986071;28;20058;-71
2021/10/07 01:05:24;;;;;;;5.80;3.05;;;;;;;9.37;76.69;97013.38;4984395;28;20058;-71
2021/10/07 01:07:51;;;;;;;3.47;2.28;;;;;;;9.40;76.71;97018.22;4986285;28;20057;-71
2021/10/07 01:10:18;;;;;;;3.92;1.80;;;;;;;9.51;77.10;97018.09;4984257;28;20057;-71
2021/10/07 01:12:44;;;;;;;4.05;2.22;;;;;;;9.60;76.44;97021.72;4986194;28;20497;-71
2021/10/07 01:15:11;;;;;;;1.98;1.52;;;;;;;9.68;75.27;97024.59;4985236;28;20849;-71
2021/10/07 01:17:37;;;;;;;3.47;1.77;;;;;;;9.70;74.50;97020.78;4986223;28;20046;-71
2021/10/07 01:20:07;;;;;;;5.50;2.17;;;;;;;9.70;74.38;97013.41;4985658;28;20058;-71
2021/10/07 01:22:34;;;;;;;3.97;1.92;;;;;;;9.74;74.71;97013.66;4985488;28;20054;-71
2021/10/07 01:25:01;;;;;;;4.65;2.13;;;;;;;9.75;74.96;97024.22;4986445;28;20049;-71
2021/10/07 01:27:30;;;;;;;1.70;1.40;;;;;;;9.74;74.62;97016.38;4985432;28;20080;-71
2021/10/07 01:30:00;;;;;;;2.38;1.70;;;;;;;9.71;74.66;97022.38;4986170;28;20057;-71
2021/10/07 01:32:27;;;;;;;5.03;2.15;;;;;;;9.76;75.06;97014.16;4985134;28;20042;-72
2021/10/07 01:34:54;;;;;;;3.78;1.60;;;;;;;9.82;73.98;97018.44;4986069;28;20046;-72
2021/10/07 01:37:22;;;;;;;4.13;2.88;;;;;;;9.84;74.15;97021.63;4985234;28;20267;-71
2021/10/07 01:39:48;;;;;;;5.25;1.90;;;;;;;9.85;74.66;97018.63;4985978;28;20046;-71
2021/10/07 01:42:15;;;;;;;3.30;1.90;;;;;;;9.84;75.13;97018.91;4985738;28;20050;-71
2021/10/07 01:44:41;;;;;;;2.78;1.67;;;;;;;9.89;74.53;97018.84;4985349;28;20054;-71
2021/10/07 01:47:08;;;;;;;3.53;1.77;;;;;;;9.90;74.61;97023.16;4980790;28;20057;-72
2021/10/07 01:49:34;;;;;;;4.00;1.70;;;;;;;9.94;74.01;97018.75;4985325;28;20057;-71
2021/10/07 01:52:01;;;;;;;3.80;1.80;;;;;;;9.89;73.43;97016.13;4986022;28;20145;-72
2021/10/07 01:54:28;;;;;;;3.25;1.90;;;;;;;9.91;74.50;97016.63;4976955;28;20053;-71
2021/10/07 01:56:55;;;;;;;4.40;1.88;;;;;;;9.95;75.41;97012.22;4985484;28;20501;-72
2021/10/07 01:59:21;;;;;;;2.10;1.70;;;;;;;9.99;75.15;97018.69;4984617;28;20378;-71
2021/10/07 02:01:48;;;;;;;3.45;2.53;;;;;;;9.99;75.17;97013.22;4985461;28;20050;-71
2021/10/07 02:04:15;;;;;;;2.95;1.80;;;;;;;9.96;75.18;97019.25;4985202;28;20054;-71
2021/10/07 02:06:41;;;;;;;3.25;2.20;;;;;;;10.02;74.27;97007.19;4985132;28;20050;-71
2021/10/07 02:09:08;;;;;;;3.03;1.70;;;;;;;10.00;74.54;97014.84;4985459;28;20055;-71
2021/10/07 02:11:36;;;;;;;3.75;2.30;;;;;;;10.04;73.98;97010.44;4984856;28;20054;-71
2021/10/07 02:14:04;;;;;;;2.10;1.80;;;;;;;9.98;74.13;97011.63;4985239;28;20059;-71
2021/10/07 02:16:31;;;;;;;3.67;2.00;;;;;;;9.92;74.33;97012.81;4984537;28;20061;-71
2021/10/07 02:18:57;;;;;;;2.33;1.77;;;;;;;9.91;74.30;97016.63;4985838;28;20055;-72
2021/10/07 02:21:24;;;;;;;4.68;1.98;;;;;;;9.88;74.09;97015.31;4984226;28;20058;-71
2021/10/07 02:23:51;;;;;;;2.97;1.77;;;;;;;9.90;73.30;97021.25;4978140;28;20050;-72
2021/10/07 02:26:18;;;;;;;4.05;1.83;;;;;;;9.91;73.45;97027.50;4985067;28;20053;-71
2021/10/07 02:28:46;;;;;;;5.57;1.98;;;;;;;9.88;74.33;97025.38;4985438;28;20046;-71
2021/10/07 02:31:12;;;;;;;3.05;1.77;;;;;;;9.87;75.21;97027.31;4984749;28;20059;-71
2021/10/07 02:33:39;;;;;;;2.25;1.50;;;;;;;9.93;73.96;97030.75;4987058;28;20053;-71
2021/10/07 02:36:06;;;;;;;4.03;1.65;;;;;;;9.92;73.61;97021.78;4988277;28;20050;-71
2021/10/07 02:38:32;;;;;;;2.97;1.70;;;;;;;9.96;73.70;97029.34;4987820;28;20453;-71
2021/10/07 02:40:59;;;;;;;3.20;1.60;;;;;;;9.93;73.27;97026.13;4988884;28;20517;-71
2021/10/07 02:43:25;;;;;;;1.90;1.42;;;;;;;9.90;73.48;97032.13;4987564;28;20537;-71
2021/10/07 02:45:53;;;;;;;2.78;1.80;;;;;;;9.91;73.58;97028.31;4988653;28;20047;-71
2021/10/07 02:48:20;;;;;;;2.72;1.67;;;;;;;9.87;73.64;97023.78;4987889;28;20054;-72
2021/10/07 02:50:46;;;;;;;3.80;1.77;;;;;;;9.84;73.55;97032.53;4988285;28;20081;-71
2021/10/07 02:53:12;;;;;;;4.88;1.70;;;;;;;9.81;73.86;97027.66;4982342;28;20054;-71
2021/10/07 02:55:39;;;;;;;3.25;1.85;;;;;;;9.79;74.45;97036.13;4986155;28;20066;-71
2021/10/07 02:58:05;;;;;;;3.78;1.77;;;;;;;9.78;75.63;97039.16;4988431;28;20050;-71
2021/10/07 03:00:32;;;;;;;3.00;1.90;;;;;;;9.78;75.77;97045.41;4987960;28;20044;-71
2021/10/07 03:03:00;;;;;;;3.90;1.83;;;;;;;9.78;75.83;97050.03;4988775;28;20077;-72
2021/10/07 03:05:26;;;;;;;2.55;1.70;;;;;;;9.82;76.01;97051.06;4986952;28;20046;-71
2021/10/07 03:07:52;;;;;;;3.75;1.80;;;;;;;9.84;76.23;97051.56;4988505;28;20061;-71
2021/10/07 03:10:20;;;;;;;4.60;1.55;;;;;;;9.85;75.99;97051.25;4987169;28;20057;-71
2021/10/07 03:12:46;;;;;;;5.03;2.03;;;;;;;9.89;76.29;97041.41;4988254;28;20062;-72
2021/10/07 03:15:13;;;;;;;3.90;1.65;;;;;;;9.89;76.05;97054.22;4987257;28;20541;-71
2021/10/07 03:17:40;;;;;;;2.30;1.77;;;;;;;9.87;75.62;97048.25;4987817;28;20053;-71
2021/10/07 03:20:09;;;;;;;3.85;1.70;;;;;;;9.85;75.81;97050.44;4986973;28;20050;-71
2021/10/07 03:22:36;;;;;;;2.60;1.98;;;;;;;9.84;75.85;97054.28;4986788;28;20049;-72
2021/10/07 03:25:02;;;;;;;3.72;1.67;;;;;;;9.85;76.29;97058.63;4980080;28;20057;-71
2021/10/07 03:27:29;;;;;;;2.97;1.95;;;;;;;9.86;76.45;97052.06;4987121;28;20050;-72
2021/10/07 03:29:55;;;;;;;2.03;1.40;;;;;;;9.86;76.54;97062.94;4988032;28;20042;-71
2021/10/07 03:32:22;;;;;;;4.53;1.98;;;;;;;9.89;75.43;97062.38;4986628;28;20455;-71
2021/10/07 03:34:48;;;;;;;3.42;1.83;;;;;;;9.93;75.73;97063.41;4987618;28;20046;-71
2021/10/07 03:37:16;;;;;;;4.03;2.00;;;;;;;9.88;75.39;97060.75;4986830;28;20058;-71
2021/10/07 03:39:43;;;;;;;3.03;1.75;;;;;;;9.87;75.69;97068.09;4987155;28;20054;-71
2021/10/07 03:42:10;;;;;;;4.57;1.85;;;;;;;9.89;75.27;97068.63;4986964;28;20050;-72
2021/10/07 03:44:36;;;;;;;2.53;1.88;;;;;;;9.90;75.55;97063.97;4986768;28;20050;-71
2021/10/07 03:47:03;;;;;;;1.98;1.60;;;;;;;9.87;75.97;97059.16;4987309;28;20054;-72
2021/10/07 03:49:30;;;;;;;5.43;2.00;;;;;;;9.88;75.74;97066.19;4986698;28;20390;-71
2021/10/07 03:51:56;;;;;;;2.28;1.80;;;;;;;9.88;76.10;97066.19;4987886;28;20413;-71
2021/10/07 03:54:24;;;;;;;5.50;1.80;;;;;;;9.86;75.82;97062.94;4985697;28;20054;-71
2021/10/07 03:56:51;;;;;;;4.78;1.90;;;;;;;9.82;75.60;97073.63;4987299;28;20050;-71
2021/10/07 03:59:17;;;;;;;3.17;1.70;;;;;;;9.85;75.56;97074.94;4986069;28;20058;-71
2021/10/07 04:01:43;;;;;;;3.25;2.10;;;;;;;9.80;75.06;97072.28;4987421;28;20054;-72
2021/10/07 04:04:10;;;;;;;3.25;1.90;;;;;;;9.77;75.32;97070.19;4986814;28;20047;-71
2021/10/07 04:06:36;;;;;;;3.08;1.90;;;;;;;9.72;75.16;97072.97;4987015;28;20050;-71
2021/10/07 04:09:03;;;;;;;2.90;1.77;;;;;;;9.71;75.75;97071.34;4972032;28;20069;-71
2021/10/07 04:11:31;;;;;;;2.40;1.58;;;;;;;9.72;75.82;97072.97;4967342;28;20072;-71
2021/10/07 04:13:58;;;;;;;4.07;1.52;;;;;;;9.76;75.21;97068.53;4968121;28;20055;-71
2021/10/07 04:16:24;;;;;;;2.67;1.88;;;;;;;9.72;75.63;97070.25;4966639;28;20050;-71
2021/10/07 04:18:50;;;;;;;5.13;2.20;;;;;;;9.63;75.38;97070.91;4968342;28;20046;-71
2021/10/07 04:21:18;;;;;;;3.15;2.00;;;;;;;9.65;75.99;97068.69;4966416;28;20061;-71
2021/10/07 04:23:44;;;;;;;4.05;2.20;;;;;;;9.66;76.43;97070.34;4976506;28;20076;-71
2021/10/07 04:26:11;;;;;;;3.42;2.00;;;;;;;9.66;76.76;97070.34;4986342;28;20413;-71
2021/10/07 04:28:38;;;;;;;4.68;2.50;;;;;;;9.65;76.06;97065.97;4986991;28;20050;-71
2021/10/07 04:31:05;;;;;;;3.10;2.15;;;;;;;9.65;76.06;97070.59;4986421;28;20046;-71
2021/10/07 04:33:31;;;;;;;4.88;2.30;;;;;;;9.66;76.14;97081.22;4986624;28;20042;-72
2021/10/07 04:35:58;;;;;;;4.97;2.45;;;;;;;9.67;76.29;97077.38;4986977;28;20054;-72
2021/10/07 04:38:24;;;;;;;4.43;2.50;;;;;;;9.67;76.33;97071.94;4985789;28;20512;-71
2021/10/07 04:40:51;;;;;;;2.72;1.98;;;;;;;9.66;75.75;97075.78;4986973;28;20050;-72
2021/10/07 04:43:18;;;;;;;3.55;2.17;;;;;;;9.52;75.78;97079.50;4985747;28;20057;-71
2021/10/07 04:45:46;;;;;;;4.10;2.03;;;;;;;9.47;76.29;97082.28;4986775;28;20157;-71
2021/10/07 04:48:13;;;;;;;2.50;2.03;;;;;;;9.47;77.18;97087.72;4985889;28;20065;-71
2021/10/07 04:50:39;;;;;;;5.13;1.98;;;;;;;9.48;77.33;97083.91;4986512;28;20785;-71
2021/10/07 04:53:06;;;;;;;3.78;2.17;;;;;;;9.45;76.98;97088.03;4981722;28;20054;-71
2021/10/07 04:55:32;;;;;;;4.32;2.72;;;;;;;9.54;77.03;97093.59;4982357;28;20046;-72
2021/10/07 04:57:59;;;;;;;4.75;1.90;;;;;;;9.58;77.25;97092.72;4986414;28;20051;-71
2021/10/07 05:00:25;;;;;;;4.60;2.10;;;;;;;9.59;77.25;97086.19;4985472;28;20472;-72
2021/10/07 05:02:53;;;;;;;3.83;2.03;;;;;;;9.60;77.38;97082.34;4986558;28;20054;-74
2021/10/07 05:05:19;;;;;;;5.78;2.30;;;;;;;9.58;77.52;97084.56;4985110;28;20053;-74
2021/10/07 05:07:46;;;;;;;5.35;3.05;;;;;;;9.58;77.79;97090.00;4986738;28;20042;-74
2021/10/07 05:10:12;;;;;;;3.55;2.00;;;;;;;9.63;76.98;97087.22;4984795;28;20065;-75
2021/10/07 05:12:40;;;;;;;5.80;3.10;;;;;;;9.61;76.93;97084.00;4986482;28;20046;-75
2021/10/07 05:15:08;;;;;;;3.97;2.83;;;;;;;9.63;76.85;97080.97;4985278;28;20059;-75
2021/10/07 05:17:34;;;;;;;6.78;3.15;;;;;;;9.71;76.74;97082.22;4986293;28;20420;-76
2021/10/07 05:20:03;;;;;;;5.47;2.58;;;;;;;9.76;76.76;97090.28;4985621;28;20512;-75
2021/10/07 05:22:30;;;;;;;3.17;2.13;;;;;;;9.78;76.76;97096.28;4985466;28;20606;-75
2021/10/07 05:24:57;;;;;;;5.07;1.77;;;;;;;9.78;76.91;97097.06;4978731;28;20051;-76
2021/10/07 05:27:23;;;;;;;6.70;2.75;;;;;;;9.80;77.28;97099.50;4985093;28;20046;-75
2021/10/07 05:29:50;;;;;;;7.30;3.17;;;;;;;9.85;77.13;97088.53;4986261;28;20049;-76
2021/10/07 05:32:16;;;;;;;10.27;3.47;;;;;;;9.91;77.20;97092.78;4983930;28;20050;-75
2021/10/07 05:34:43;;;;;;;5.97;3.22;;;;;;;9.95;76.50;97099.28;4984429;28;20038;-76
2021/10/07 05:37:10;;;;;;;6.25;3.42;;;;;;;9.93;76.64;97101.47;4983487;28;20070;-75
2021/10/07 05:39:37;;;;;;;6.15;3.65;;;;;;;9.97;77.01;97105.25;4984005;28;20042;-75
2021/10/07 05:42:04;;;;;;;6.78;2.60;;;;;;;10.00;76.96;97101.91;4984047;28;20061;-75
2021/10/07 05:44:30;;;;;;;6.68;3.53;;;;;;;10.03;76.78;97103.25;4984391;28;20057;-75
2021/10/07 05:46:57;;;;;;;7.13;2.70;;;;;;;9.99;76.42;97108.47;4985443;28;20050;-75
2021/10/07 05:49:25;;;;;;;5.97;2.80;;;;;;;10.03;76.65;97111.41;4984612;28;20061;-75
2021/10/07 05:51:51;;;;;;;6.88;2.30;;;;;;;10.09;77.27;97111.03;4985522;28;20562;-75
2021/10/07 05:54:20;;;;;;;6.00;2.25;;;;;;;10.14;76.63;97113.66;4982865;28;20046;-75
2021/10/07 05:56:47;;;;;;;4.70;2.65;;;;;;;10.17;75.77;97104.88;4985740;28;20050;-75
2021/10/07 05:59:13;;;;;;;8.98;2.97;;;;;;;10.20;75.61;97107.03;4984430;28;20061;-76
2021/10/07 06:01:41;;;;;;;5.15;2.83;;;;;;;10.17;76.08;97104.09;4985589;28;20053;-75
2021/10/07 06:04:07;;;;;;;6.82;2.55;;;;;;;10.14;75.92;97102.78;4983830;28;20054;-74
2021/10/07 06:06:34;;;;;;;3.97;2.63;;;;;;;10.09;75.78;97100.16;4985397;28;20050;-76
2021/10/07 06:09:00;;;;;;;7.22;3.50;;;;;;;10.10;76.43;97107.19;4987279;28;20463;-75
2021/10/07 06:11:28;;;;;;;7.32;3.17;;;;;;;10.12;76.36;97110.41;4987940;28;20061;-77
2021/10/07 06:13:54;;;;;;;5.25;3.00;;;;;;;10.19;76.22;97116.31;4988908;28;20054;-75
2021/10/07 06:16:21;;;;;;;6.60;3.30;;;;;;;10.24;76.04;97122.81;4987554;28;20050;-75
2021/10/07 06:18:49;;;;;;;6.18;3.00;;;;;;;10.26;76.26;97126.03;4989019;28;20049;-77
2021/10/07 06:21:16;;;;;;;10.15;4.10;;;;;;;10.27;75.81;97122.19;4987669;28;20072;-75
2021/10/07 06:23:43;;;;;;;7.93;3.25;;;;;;;10.31;75.78;97120.50;4988644;28;20050;-76
2021/10/07 06:26:10;;;;;;;8.98;3.97;;;;;;;10.29;75.92;97120.81;4987972;28;20054;-75
2021/10/07 06:28:38;;;;;;;5.97;3.22;;;;;;;10.33;76.24;97123.72;4988591;28;20536;-75
2021/10/07 06:31:05;;;;;;;6.50;3.13;;;;;;;10.37;76.46;97122.84;4987906;28;20054;-75
2021/10/07 06:33:32;;;;;;;6.10;3.55;;;;;;;10.40;75.46;97132.34;4988529;28;20046;-75
2021/10/07 06:35:59;;;;;;;6.28;2.88;;;;;;;10.34;75.80;97133.53;4988510;28;20046;-75
2021/10/07 06:38:25;;;;;;;5.00;2.88;;;;;;;10.33;76.36;97137.34;4987225;28;20046;-75
2021/10/07 06:40:52;;;;;;;7.43;3.40;;;;;;;10.38;76.49;97142.72;4988464;28;20103;-75
2021/10/07 06:43:18;;;;;;;5.70;2.67;;;;;;;10.35;76.41;97146.03;4988163;28;20061;-76
2021/10/07 06:45:46;;;;;;;4.55;3.10;;;;;;;10.42;75.62;97141.81;4988893;28;20053;-76
2021/10/07 06:48:13;;;;;;;3.72;2.50;;;;;;;10.48;75.72;97145.25;4987581;28;20057;-75
2021/10/07 06:50:42;;;;;;;5.18;2.60;;;;;;;10.53;75.66;97147.91;4987775;28;20042;-75
2021/10/07 06:53:09;;;;;;;5.72;2.50;;;;;;;10.57;75.53;97143.47;4987380;28;20125;-75
2021/10/07 06:55:36;;;;;;;6.10;3.47;;;;;;;10.56;75.40;97141.88;4987814;28;20058;-75
2021/10/07 06:58:03;;;;;;;6.53;3.05;;;;;;;10.61;75.49;97144.50;4987666;28;20078;-74
2021/10/07 07:00:31;;;;;;;5.28;2.40;;;;;;;10.68;75.29;97155.00;4987362;28;20050;-75
2021/10/07 07:02:59;;;;;;;4.93;2.20;;;;;;;10.65;74.45;97155.63;4988183;28;20131;-75
2021/10/07 07:05:26;;;;;;;5.80;2.53;;;;;;;10.66;74.49;97158.03;4986742;28;20058;-75
2021/10/07 07:07:53;;;;;;;4.60;3.05;;;;;;;10.68;74.71;97161.25;4988507;28;20058;-75
2021/10/07 07:10:19;;;;;;;4.55;2.33;;;;;;;10.75;75.25;97160.06;4986892;28;20078;-75
2021/10/07 07:12:46;;;;;;;5.03;2.88;;;;;;;10.81;74.63;97161.63;4988390;28;20065;-75
2021/10/07 07:15:13;;;;;;;5.20;3.05;;;;;;;10.80;74.57;97162.69;4986967;28;20089;-77
2021/10/07 07:17:40;;;;;;;7.10;3.30;;;;;;;10.85;75.10;97160.69;4988035;28;20050;-76
2021/10/07 07:20:09;;;;;;;6.03;2.42;;;;;;;10.94;75.05;97161.63;4986243;28;20050;-75
2021/10/07 07:22:36;;;;;;;5.57;2.90;;;;;;;10.97;74.93;97158.31;4987520;28;20057;-75
2021/10/07 07:25:02;;;;;;;5.90;3.25;;;;;;;11.03;74.87;97156.28;4987367;28;20054;-75
2021/10/07 07:27:29;;;;;;;6.25;2.78;;;;;;;10.98;74.74;97165.38;4987074;28;20050;-75
2021/10/07 07:29:55;;;;;;;4.65;3.08;;;;;;;11.02;75.13;97165.59;4987914;28;20561;-75
2021/10/07 07:32:22;;;;;;;6.20;2.75;;;;;;;11.11;75.50;97179.31;4986506;28;20536;-75
2021/10/07 07:34:49;;;;;;;5.32;2.70;;;;;;;11.09;74.07;97176.88;4987931;28;20057;-76
2021/10/07 07:37:18;;;;;;;8.90;2.50;;;;;;;11.16;73.88;97177.28;4986569;28;20057;-74
2021/10/07 07:39:44;;;;;;;5.95;2.65;;;;;;;11.19;72.90;97181.34;4987571;28;20050;-76
2021/10/07 07:42:11;;;;;;;7.82;2.55;;;;;;;11.21;72.49;97174.47;4986843;28;20121;-75
2021/10/07 07:44:39;;;;;;;5.90;2.80;;;;;;;11.35;73.25;97182.66;4987194;28;20049;-75
2021/10/07 07:47:06;;;;;;;4.90;2.50;;;;;;;11.43;72.70;97181.13;4987088;28;20104;-74
2021/10/07 07:49:32;;;;;;;7.53;3.22;;;;;;;11.36;72.27;97183.47;4986899;28;20050;-76
2021/10/07 07:51:59;;;;;;;5.10;3.33;;;;;;;11.36;72.15;97180.75;4987954;28;20057;-76
2021/10/07 07:54:26;;;;;;;5.32;2.90;;;;;;;11.45;72.79;97184.38;4985904;28;20051;-78
2021/10/07 07:56:53;;;;;;;4.97;2.88;;;;;;;11.55;72.79;97192.38;4987609;28;20053;-75
2021/10/07 07:59:20;;;;;;;4.95;3.35;;;;;;;11.62;72.00;97189.22;4986058;28;20065;-75
2021/10/07 08:01:46;;;;;;;4.43;3.15;;;;;;;11.67;71.94;97192.66;4987367;28;20379;-75
2021/10/07 08:04:13;;;;;;;9.25;3.30;;;;;;;11.62;71.76;97195.50;4986000;28;20050;-75
2021/10/07 08:06:39;;;;;;;8.40;3.70;;;;;;;11.57;71.95;97203.78;4987282;28;20054;-75
2021/10/07 08:09:08;;;;;;;8.68;3.30;;;;;;;11.62;72.31;97202.88;4986683;28;20081;-76
2021/10/07 08:11:39;;;;;;;6.13;3.90;;;;;;;11.68;73.18;97205.19;4986777;28;20054;-76
2021/10/07 08:14:06;;;;;;;5.95;3.15;;;;;;;11.75;72.21;97210.25;4986838;28;20505;-75
2021/10/07 08:16:32;;;;;;;5.25;3.25;;;;;;;11.81;72.43;97210.94;4986596;28;20050;-76
2021/10/07 08:18:59;;;;;;;5.20;3.60;;;;;;;11.83;72.72;97216.94;4987170;28;20051;-75
2021/10/07 08:21:26;;;;;;;7.88;3.95;;;;;;;11.89;72.32;97221.16;4985755;28;20051;-75
2021/10/07 08:23:53;;;;;;;5.65;3.80;;;;;;;11.88;71.81;97214.91;4986688;28;20366;-76
2021/10/07 08:26:20;;;;;;;6.60;3.50;;;;;;;11.86;72.51;97228.06;4986203;28;20463;-75
2021/10/07 08:28:48;;;;;;;6.97;4.50;;;;;;;11.86;72.77;97221.78;4986892;28;20075;-76
2021/10/07 08:31:15;;;;;;;8.20;4.20;;;;;;;11.82;72.47;97220.78;4985122;28;20061;-77
2021/10/07 08:33:41;;;;;;;7.75;4.45;;;;;;;11.82;72.90;97223.50;4986461;28;20050;-75
2021/10/07 08:36:08;;;;;;;11.63;4.82;;;;;;;11.86;72.79;97221.78;4986225;28;20046;-74
2021/10/07 08:38:34;;;;;;;6.40;4.30;;;;;;;11.89;73.14;97226.63;4986255;28;20043;-76
2021/10/07 08:41:01;;;;;;;8.77;5.13;;;;;;;11.91;72.86;97227.16;4986921;28;20548;-76
2021/10/07 08:43:28;;;;;;;6.60;4.53;;;;;;;11.94;73.42;97231.97;4985857;28;20046;-75
2021/10/07 08:45:56;;;;;;;9.18;5.38;;;;;;;11.92;73.78;97236.94;4986769;28;20058;-75
2021/10/07 08:48:23;;;;;;;6.57;4.53;;;;;;;11.95;73.02;97236.31;4985762;28;20042;-75
2021/10/07 08:50:49;;;;;;;6.63;4.70;;;;;;;11.89;73.64;97227.44;4986564;28;20050;-75
2021/10/07 08:53:16;;;;;;;9.85;5.28;;;;;;;11.84;73.52;97224.00;4985578;28;20053;-75
2021/10/07 08:55:43;;;;;;;7.72;5.15;;;;;;;11.75;73.82;97226.63;4986014;28;20057;-76
2021/10/07 08:58:11;;;;;;;10.48;5.93;;;;;;;11.73;74.06;97226.09;4986088;28;20093;-76
2021/10/07 09:00:37;;;;;;;13.18;6.15;;;;;;;11.68;74.70;97226.19;4985584;28;20057;-76
2021/10/07 09:03:19;;;;;;;8.10;5.47;;;;;;;11.70;74.99;97230.25;4986297;28;20053;-75
2021/10/07 09:05:45;;;;;;;9.70;5.13;;;;;;;11.67;75.18;97230.84;4985123;28;20096;-75
2021/10/07 09:08:15;;;;;;;9.50;5.70;;;;;;;11.66;75.29;97222.97;4986431;28;20054;-75
2021/10/07 09:10:45;;;;;;;10.27;6.32;;;;;;;11.65;75.80;97229.56;4985819;28;20441;-75
2021/10/07 09:13:15;;;;;;;10.65;5.78;;;;;;;11.62;76.03;97228.22;4986239;28;20081;-75
2021/10/07 09:15:46;;;;;;;8.70;5.47;;;;;;;11.64;74.50;97236.09;4985666;28;20050;-77
2021/10/07 09:18:14;;;;;;;7.43;5.18;;;;;;;11.60;74.67;97233.19;4985481;28;20046;-75
2021/10/07 09:20:43;;;;;;;12.93;5.85;;;;;;;11.61;74.21;97232.06;4985940;28;20058;-75
2021/10/07 09:23:12;;;;;;;9.88;5.38;;;;;;;11.64;74.22;97231.47;4984862;28;20055;-75
2021/10/07 09:25:57;;;;;;;10.85;6.13;;;;;;;11.62;74.17;97236.41;4986102;28;20047;-75
2021/10/07 09:28:24;;;;;;;8.20;5.47;;;;;;;11.53;74.98;97234.69;4985265;28;20091;-75
2021/10/07 09:30:55;;;;;;;9.85;5.80;;;;;;;11.35;75.38;97233.66;4985616;28;20073;-77
2021/10/07 09:33:38;;;;;;;10.02;5.57;;;;;;;11.28;76.75;97236.00;4985199;28;20105;-76
2021/10/07 09:36:16;;;;;;;9.35;5.90;;;;;;;11.18;77.60;97237.78;4985034;28;20130;-76
2021/10/07 09:38:45;;;;;;;8.73;5.63;;;;;;;11.15;78.75;97232.94;4985952;28;20046;-77
2021/10/07 09:41:15;;;;;;;11.57;5.32;;;;;;;11.13;78.79;97235.16;4984600;28;20057;-75
2021/10/07 09:43:43;;;;;;;9.60;6.05;;;;;;;11.09;79.80;97225.94;4985637;28;20050;-76
2021/10/07 09:46:09;;;;;;;21.42;5.85;;;;;;;11.09;80.09;97236.84;4984422;28;20054;-76
2021/10/07 09:48:40;;;;;;;10.48;5.97;;;;;;;11.14;81.01;97228.59;4985622;28;20058;-76
2021/10/07 09:51:15;;;;;;;12.77;6.43;;;;;;;11.21;81.11;97229.00;4984602;28;20050;-76
2021/10/07 09:53:45;;;;;;;9.57;6.00;;;;;;;11.24;81.87;97233.84;4984669;28;20050;-76
2021/10/07 09:56:25;;;;;;;9.20;5.55;;;;;;;11.31;81.17;97235.38;4985129;28;20115;-76
2021/10/07 09:58:52;;;;;;;6.72;4.63;;;;;;;11.27;79.88;97228.91;4985005;28;20103;-76
2021/10/07 10:01:19;;;;;;;8.73;4.90;;;;;;;11.20;79.50;97216.47;4985389;28;20058;-76
2021/10/07 10:03:46;;;;;;;9.07;5.47;;;;;;;11.17;80.03;97216.25;4984509;28;20123;-76
2021/10/07 10:06:14;;;;;;;8.38;5.20;;;;;;;11.21;80.46;97218.09;4985328;28;20061;-76
2021/10/07 10:08:41;;;;;;;6.57;4.78;;;;;;;11.26;80.89;97219.13;4985047;28;20050;-77
2021/10/07 10:11:08;;;;;;;8.52;5.22;;;;;;;11.29;80.99;97218.53;4985164;28;20054;-75
2021/10/07 10:13:35;;;;;;;7.25;4.40;;;;;;;11.31;80.90;97221.75;4985045;28;20498;-77
2021/10/07 10:16:01;;;;;;;6.78;4.22;;;;;;;11.35;81.22;97222.75;4985009;28;20057;-76
2021/10/07 10:18:28;;;;;;;7.75;4.85;;;;;;;11.43;80.41;97213.88;4985088;28;20509;-76
2021/10/07 10:20:56;;;;;;;6.18;3.83;;;;;;;11.48;78.97;97219.22;4984768;28;20573;-76
2021/10/07 10:23:26;;;;;;;7.80;4.40;;;;;;;11.40;77.82;97219.94;4985319;28;20057;-76
2021/10/07 10:25:55;;;;;;;8.77;4.50;;;;;;;11.39;78.63;97212.88;4984878;28;20058;-78
2021/10/07 10:28:46;;;;;;;9.30;4.88;;;;;;;11.45;78.42;97222.56;4985164;28;20103;-76
2021/10/07 10:31:15;;;;;;;5.75;4.18;;;;;;;11.45;77.32;97212.47;4984904;28;20046;-76
2021/10/07 10:33:44;;;;;;;8.80;4.38;;;;;;;11.41;77.43;97222.34;4984903;28;20513;-76
2021/10/07 10:36:36;;;;;;;6.03;4.20;;;;;;;11.56;78.16;97218.53;4984544;28;20047;-76
2021/10/07 10:39:18;;;;;;;6.15;3.80;;;;;;;11.67;77.80;97225.41;4984088;28;20046;-76
2021/10/07 10:41:47;;;;;;;8.20;4.60;;;;;;;11.66;76.58;97229.25;4984913;28;20488;-76
2021/10/07 10:44:30;;;;;;;8.27;4.38;;;;;;;11.80;77.14;97220.22;4984208;28;20054;-76
2021/10/07 10:47:00;;;;;;;;;;;;;;;11.89;78.01;97216.50;4984907;28;20528;-76
2021/10/07 10:49:36;;;;;;;5.35;3.75;;;;;;;11.93;76.68;97233.09;4984546;28;19925;-76
2021/10/07 10:52:12;;;;;;;8.48;4.75;;;;;;;11.95;76.41;97230.84;4983720;28;20104;-76
2021/10/07 10:54:44;;;;;;;8.25;4.30;;;;;;;12.00;76.44;97231.56;4986670;28;20054;-75
2021/10/07 10:57:27;;;;;;;8.43;3.87;;;;;;;12.03;76.18;97232.88;4986977;28;20057;-76
2021/10/07 11:00:12;;;;;;;7.10;4.25;;;;;;;12.12;75.93;97230.25;4988060;28;20050;-76
2021/10/07 11:02:39;;;;;;;8.10;3.67;;;;;;;12.21;76.66;97229.19;4987630;28;20046;-76
2021/10/07 11:05:27;;;;;;;7.25;4.05;;;;;;;12.25;76.35;97234.84;4987073;28;20057;-76
2021/10/07 11:08:18;;;;;;;6.68;4.28;;;;;;;12.24;75.63;97227.78;4983848;28;20058;-76
2021/10/07 11:10:49;;;;;;;7.63;4.38;;;;;;;12.26;76.07;97231.81;4987265;28;20121;-75
2021/10/07 11:13:17;;;;;;;7.28;3.78;;;;;;;12.33;73.90;97236.06;4987816;28;20519;-76
2021/10/07 11:15:48;;;;;;;5.15;3.33;;;;;;;12.38;73.25;97231.28;4987585;28;20054;-76
2021/10/07 11:18:14;;;;;;;7.35;3.65;;;;;;;12.39;72.75;97232.91;4987277;28;20285;-75
2021/10/07 11:20:41;;;;;;;5.90;3.67;;;;;;;12.44;72.74;97226.53;4987789;28;20448;-75
2021/10/07 11:23:11;;;;;;;6.72;4.00;;;;;;;12.49;73.73;97223.66;4986752;28;20062;-75
2021/10/07 11:25:41;;;;;;;5.20;3.28;;;;;;;12.57;73.90;97220.19;4988165;28;20069;-75
2021/10/07 11:28:09;;;;;;;7.25;3.70;;;;;;;12.63;72.47;97212.66;4986580;28;20063;-74
2021/10/07 11:30:38;;;;;;;7.43;4.00;;;;;;;12.59;71.50;97217.97;4987612;28;20051;-75
2021/10/07 11:33:05;;;;;;;6.75;3.40;;;;;;;12.57;71.18;97220.19;4986362;28;20077;-75
2021/10/07 11:35:32;;;;;;;5.32;3.95;;;;;;;12.56;72.11;97213.13;4987521;28;20049;-75
2021/10/07 11:38:03;;;;;;;7.97;3.67;;;;;;;12.56;72.30;97209.56;4987507;28;20400;-75
2021/10/07 11:40:38;;;;;;;6.72;3.90;;;;;;;12.47;71.48;97204.03;4986652;28;20485;-75
2021/10/07 11:43:06;;;;;;;9.00;4.38;;;;;;;12.50;71.60;97203.44;4987398;28;20050;-75